EBCI/CRL METAR and TAF weather

Enter ICAO airport designator
Station Type Date Time Source
EBCI METAR 2018/04/27 00:50 UTC NOAA

EBCI 270050Z 18004KT CAVOK 06/02 Q1016 NOSIG


Station Type Date Time Source
EBCI Decoded METAR 2018/04/27 00:50 UTC NOAA

Charleroi / Gosselies, Belgium (EBCI) 50-28N 004-27E 192M
Apr 26, 2018 - 08:50 PM EDT / 2018.04.27 0050 UTC
Wind: from the S (180 degrees) at 5 MPH (4 KT):0
Visibility: greater than 7 mile(s):0
Temperature: 42 F (6 C)
Dew Point: 35 F (2 C)
Relative Humidity: 75%
Pressure (altimeter): 30.00 in. Hg (1016 hPa)
ob: EBCI 270050Z 18004KT CAVOK 06/02 Q1016 NOSIG
cycle: 1

Station Type Date Time Source
EBCI TAF 2018/04/26 18:27 UTC NOAA

TAF EBCI 261701Z 2618/2724 26007KT CAVOK


Example: see airport list